Relevés horaires Bierset (Belgique)


Relevés horaires à Bierset - Vendredi 15 Sept. 2023
Heure UTC1 Température [°C] Vent [km/h] Hum. [%] Pres.4 [hPa] Visi. [Km] Nébu. [octa] Préc.5 [mm] Cond.
2m. Res. Ros. Dir.2 Vit. Moy. Raf.3
23:00 16.5 16.5 12.2 SE 5.6 7.4 7.4 76 1014.7(-0.6/3h) 30 3/8 -- --
22:00 17.9 17.9 11.3 ESE 5.6 5.6 14.8 65 1014.8(-0.4/3h) 30 3/8 -- --
21:00 18.1 18.1 12.2 SE 5.6 5.6 14.8 68 1015.4(0.3/3h) 30 4/8 -- --
20:00 18.8 18.8 11.3 E 5.6 5.6 5.6 62 1015.2(0.2/3h) 30 5/8 -- --
19:00 19.8 19.8 11.2 E 3.7 3.7 5.6 58 1015(0.0/3h) 30 5/8 -- --
18:00 21.0 21.0 10.5 ESE 1.9 5.6 11.1 51 1014.9(-0.6/3h) 30 4/8 0/12h
--
17:00 22.0 22.0 10.9 E 1.9 3.7 9.3 49 1014.8(-1.2/3h) 30 7/8 -- --
16:00 21.7 21.7 11.1 ESE 1.9 3.7 7.4 51 1014.9(-1.5/3h) 30 7/8 -- --
15:00 22.3 22.3 10.4 S 3.7 5.6 11.1 47 1015.4(-1.5/3h) 30 7/8 -- --
14:00 22.6 22.6 11.7 SSO 3.7 3.7 11.1 50 1015.9(-1.4/3h) 30 5/8 -- --
13:00 22.7 22.7 11.7 SSE 3.7 5.6 11.1 50 1016.3(-1.4/3h) 28 4/8 -- --
12:00 21.6 21.6 11.4 SE 5.6 9.3 18.5 52 1017(-1.1/3h) 25 3/8 0/6h
--
11:00 21.3 21.3 11.9 S 3.7 5.6 9.3 55 1017.4(-0.8/3h) 25 2/8 -- --
10:00 20.3 20.3 12.1 SE 5.6 7.4 9.3 59 1017.9(-0.5/3h) 22 2/8 -- --
09:00 18.4 18.4 11.7 SE 5.6 9.3 18.5 65 1018.4(-0.4/3h) 20 2/8 -- --
08:00 16.0 16.0 10.7 SE 7.4 9.3 18.5 71 1018.6(0.1/3h) 20 2/8 -- --
07:00 14.1 13.9 9.9 SE 7.4 7.4 9.3 76 1018.9(-0.2/3h) 18 3/8 -- --
06:00 12.7 12.3 9.6 SSE 7.4 7.4 24.1 81 1019.2(-0.2/3h) 20 1/8 0/12h
--
05:00 12.4 12.3 9.5 SSE 5.6 7.4 16.7 82 1019(-0.6/3h) 50 1/8 -- --
04:00 13.0 12.6 9.6 SSE 7.4 7.4 14.8 80 1019.2(-0.7/3h) 50 1/8 -- --
03:00 13.2 12.9 9.7 SE 7.4 7.4 24.1 79 1019.5(-0.7/3h) 50 1/8 -- --
02:00 13.6 13.3 9.9 SE 7.4 7.4 22.2 78 1019.6(-0.9/3h) 50 1/8 -- --
01:00 14.1 14.1 10.1 SE 5.6 7.4 24.1 77 1019.8(-1.0/3h) 50 1/8 -- --
00:00 14.7 14.7 10.2 SE 5.6 7.4 24.1 74 1020.1(-1.0/3h) 50 1/8 0/6h
0/24h
--

1 Coordinated Universal Time. Actuellement il est 11:00 locale et 09:00 UTC.

2 Le vent souffle depuis la direction indiquée vers la direction oposée.

3 Les rafales max. sont disponible 40 min après l'heure du relevé.

4 Pour les stations d'altitude (plus de 600m) le géopotentiel du niveau le plus proche de la pression obligatoire est indiqué.

5 Les stations disposant d'un diffuseur peuvent indiquer "trace". Cela signifie que des précipitations ont touchés le sol mais que la quantité est inférieure à 0.1 mm.

Récapitulatif de la journée
Température [°C] Vent [km/h] Ensoleillement4 [h] Precipitations totale5 [mm] Pression [Hpa]
Min1 Max.2 Moy.3 Max. Min Max.
12.3 22.9 6.5 24.1 0 h 0 min 0 1014.7 1020.1

1 Température minimale relevée entre 18:00 UTC la veille et 18:00 UTC le jour donné.

2 Température maximale relevée entre 06:00 UTC le jour donné et 06:00 UTC le lendemain.

3 Vent moyen de la journée basé sur les relevés horaires.

4 Ensoleillement en heures relevé entre 06:00 UTC la veille et 06:00 UTC le jour donné.

5 Précipitations totales tombées entre 06:00 UTC la jour donné et 06:00 UTC le lendemain.

Graphiques horaires